createdAt,value
2019-02-04T00:00:29.387Z,1.20
2019-02-04T00:02:58.250Z,1.20
2019-02-04T00:05:26.670Z,1.20
2019-02-04T00:07:55.118Z,1.20
2019-02-04T00:10:23.533Z,1.10
2019-02-04T00:12:52.055Z,1.10
2019-02-04T00:15:21.027Z,1.10
2019-02-04T00:17:49.907Z,1.10
2019-02-04T00:20:18.336Z,1.00
2019-02-04T00:22:46.923Z,1.00
2019-02-04T00:25:15.418Z,1.00
2019-02-04T00:27:43.915Z,1.00
2019-02-04T00:30:20.783Z,0.90
2019-02-04T00:32:49.211Z,0.90
2019-02-04T00:35:17.637Z,0.90
2019-02-04T00:37:46.087Z,0.80
2019-02-04T00:40:20.698Z,0.80
2019-02-04T00:42:49.430Z,0.80
2019-02-04T00:45:17.945Z,0.90
2019-02-04T00:47:46.431Z,0.90
2019-02-04T00:50:19.829Z,0.90
2019-02-04T00:52:48.301Z,0.90
2019-02-04T00:55:17.243Z,0.90
2019-02-04T00:57:45.876Z,0.90
2019-02-04T01:00:26.911Z,0.80
2019-02-04T01:02:56.378Z,0.80
2019-02-04T01:05:25.029Z,0.90
2019-02-04T01:07:53.616Z,0.80
2019-02-04T01:10:24.851Z,0.80
2019-02-04T01:12:53.376Z,0.80
2019-02-04T01:15:21.814Z,0.80
2019-02-04T01:17:50.640Z,0.80
2019-02-04T01:20:25.150Z,0.80
2019-02-04T01:22:54.163Z,0.80
2019-02-04T01:25:22.779Z,0.80
2019-02-04T01:27:51.266Z,0.80
2019-02-04T01:30:21.783Z,0.80
2019-02-04T01:32:50.280Z,0.80
2019-02-04T01:35:18.808Z,0.80
2019-02-04T01:37:47.690Z,0.80
2019-02-04T01:40:21.563Z,0.80
2019-02-04T01:42:50.195Z,0.80
2019-02-04T01:45:18.884Z,0.80
2019-02-04T01:47:47.486Z,0.80
2019-02-04T01:50:18.479Z,0.80
2019-02-04T01:52:47.000Z,0.70
2019-02-04T01:55:15.767Z,0.70
2019-02-04T01:57:46.617Z,0.70
2019-02-04T02:00:20.676Z,0.70
2019-02-04T02:02:49.136Z,0.70
2019-02-04T02:05:17.724Z,0.70
2019-02-04T02:07:46.282Z,0.70
2019-02-04T02:10:18.238Z,0.70
2019-02-04T02:12:46.929Z,0.70
2019-02-04T02:15:15.493Z,0.70
2019-02-04T02:18:03.447Z,0.80
2019-02-04T02:20:31.935Z,0.80
2019-02-04T02:23:00.463Z,0.80
2019-02-04T02:25:29.037Z,0.80
2019-02-04T02:27:57.519Z,0.80
2019-02-04T02:30:28.161Z,0.80
2019-02-04T02:32:56.695Z,0.80
2019-02-04T02:35:25.200Z,0.80
2019-02-04T02:37:53.702Z,0.80
2019-02-04T02:40:43.088Z,0.80
2019-02-04T02:43:11.875Z,0.80
2019-02-04T02:45:40.419Z,0.80
2019-02-04T02:48:08.857Z,0.80
2019-02-04T02:50:37.311Z,0.80
2019-02-04T02:53:05.832Z,0.80
2019-02-04T02:55:34.343Z,0.70
2019-02-04T02:58:02.762Z,0.80
2019-02-04T03:00:31.215Z,0.70
2019-02-04T03:02:59.754Z,0.70
2019-02-04T03:05:28.778Z,0.70
2019-02-04T03:07:57.543Z,0.70
2019-02-04T03:10:28.771Z,0.70
2019-02-04T03:12:57.360Z,0.70
2019-02-04T03:15:25.848Z,0.70
2019-02-04T03:17:54.278Z,0.70
2019-02-04T03:20:22.804Z,0.70
2019-02-04T03:22:51.264Z,0.60
2019-02-04T03:25:19.811Z,0.60
2019-02-04T03:27:48.275Z,0.60
2019-02-04T03:30:22.861Z,0.60
2019-02-04T03:32:51.804Z,0.60
2019-02-04T03:35:20.395Z,0.60
2019-02-04T03:37:52.224Z,0.50
2019-02-04T03:40:25.403Z,0.50
2019-02-04T03:42:53.826Z,0.50
2019-02-04T03:45:22.354Z,0.50
2019-02-04T03:48:03.756Z,0.50
2019-02-04T03:50:21.191Z,0.50
2019-02-04T03:52:50.120Z,0.50
2019-02-04T03:55:19.265Z,0.50
2019-02-04T03:57:47.840Z,0.50
2019-02-04T04:00:21.791Z,0.50
2019-02-04T04:02:51.096Z,0.50
2019-02-04T04:05:19.591Z,0.50
2019-02-04T04:07:48.006Z,0.50
2019-02-04T04:10:16.705Z,0.50
2019-02-04T04:12:45.146Z,0.50
2019-02-04T04:15:15.647Z,0.50
2019-02-04T04:17:44.211Z,0.50
2019-02-04T04:20:17.457Z,0.50
2019-02-04T04:22:46.373Z,0.50
2019-02-04T04:25:16.870Z,0.50
2019-02-04T04:27:45.616Z,0.40
2019-02-04T04:30:39.083Z,0.40
2019-02-04T04:33:07.603Z,0.50
2019-02-04T04:35:36.043Z,0.50
2019-02-04T04:38:04.531Z,0.40
2019-02-04T04:40:33.045Z,0.50
2019-02-04T04:43:01.526Z,0.50
2019-02-04T04:45:30.395Z,0.50
2019-02-04T04:47:58.821Z,0.50
2019-02-04T04:50:27.270Z,0.40
2019-02-04T04:52:55.851Z,0.40
2019-02-04T04:55:26.359Z,0.50
2019-02-04T04:57:54.878Z,0.50
2019-02-04T05:00:26.698Z,0.50
2019-02-04T05:02:55.268Z,0.50
2019-02-04T05:05:23.814Z,0.60
2019-02-04T05:07:52.411Z,0.60
2019-02-04T05:10:21.871Z,0.70
2019-02-04T05:12:50.485Z,0.70
2019-02-04T05:15:26.907Z,0.70
2019-02-04T05:17:55.500Z,0.70
2019-02-04T05:20:24.143Z,0.70
2019-02-04T05:22:52.655Z,0.70
2019-02-04T05:25:21.241Z,0.80
2019-02-04T05:27:49.741Z,0.70
2019-02-04T05:30:20.228Z,0.80
2019-02-04T05:32:48.784Z,0.80
2019-02-04T05:35:17.408Z,0.70
2019-02-04T05:37:45.901Z,0.80
2019-02-04T05:40:16.589Z,0.70
2019-02-04T05:42:45.666Z,0.80
2019-02-04T05:45:19.364Z,0.80
2019-02-04T05:47:48.055Z,0.80
2019-02-04T05:50:18.892Z,0.80
2019-02-04T05:52:48.298Z,0.80
2019-02-04T05:55:36.071Z,0.80
2019-02-04T05:58:04.664Z,0.90
2019-02-04T06:00:34.787Z,0.90
2019-02-04T06:03:03.242Z,0.90
2019-02-04T06:05:31.808Z,0.90
2019-02-04T06:08:00.846Z,0.90
2019-02-04T06:10:29.336Z,0.90
2019-02-04T06:12:57.801Z,0.90
2019-02-04T06:15:26.364Z,0.90
2019-02-04T06:17:54.864Z,0.90
2019-02-04T06:20:24.703Z,0.90
2019-02-04T06:22:54.300Z,0.90
2019-02-04T06:25:22.738Z,0.90
2019-02-04T06:27:51.250Z,0.90
2019-02-04T06:30:20.216Z,0.90
2019-02-04T06:32:48.812Z,0.90
2019-02-04T06:35:19.083Z,0.90
2019-02-04T06:37:48.148Z,0.90
2019-02-04T06:40:17.602Z,0.90
2019-02-04T06:42:46.441Z,0.90
2019-02-04T06:45:17.052Z,1.00
2019-02-04T06:47:45.817Z,1.00
2019-02-04T06:50:19.348Z,1.00
2019-02-04T06:52:48.123Z,1.00
2019-02-04T06:55:22.178Z,1.00
2019-02-04T06:57:50.682Z,1.00
2019-02-04T07:00:19.535Z,1.00
2019-02-04T07:02:47.973Z,1.10
2019-02-04T07:05:17.319Z,1.10
2019-02-04T07:07:45.735Z,1.10
2019-02-04T07:10:39.388Z,1.10
2019-02-04T07:13:07.874Z,1.20
2019-02-04T07:15:36.786Z,1.20
2019-02-04T07:18:05.448Z,1.30
2019-02-04T07:20:34.040Z,1.30
2019-02-04T07:23:02.583Z,1.30
2019-02-04T07:25:31.038Z,1.40
2019-02-04T07:27:59.536Z,1.40
2019-02-04T07:30:28.675Z,1.40
2019-02-04T07:32:57.119Z,1.40
2019-02-04T07:35:25.986Z,1.50
2019-02-04T07:37:54.579Z,1.40
2019-02-04T07:40:31.399Z,1.50
2019-02-04T07:43:00.190Z,1.50
2019-02-04T07:45:29.377Z,1.50
2019-02-04T07:47:58.535Z,1.50
2019-02-04T07:50:27.221Z,1.60
2019-02-04T07:52:56.374Z,1.60
2019-02-04T07:55:25.624Z,1.60
2019-02-04T07:57:57.027Z,1.60
2019-02-04T08:00:30.350Z,1.70
2019-02-04T08:02:59.300Z,1.70
2019-02-04T08:05:28.115Z,1.70
2019-02-04T08:07:57.046Z,1.80
2019-02-04T08:10:25.735Z,1.80
2019-02-04T08:13:01.600Z,1.90
2019-02-04T08:15:27.340Z,1.90
2019-02-04T08:17:57.186Z,2.00
2019-02-04T08:20:26.367Z,2.10
2019-02-04T08:22:54.939Z,2.20
2019-02-04T08:25:25.814Z,2.20
2019-02-04T08:27:54.187Z,2.30
2019-02-04T08:30:45.033Z,2.30
2019-02-04T08:33:13.548Z,2.40
2019-02-04T08:35:42.262Z,2.50
2019-02-04T08:38:10.945Z,2.50
2019-02-04T08:40:39.431Z,2.60
2019-02-04T08:43:08.459Z,2.60
2019-02-04T08:45:37.149Z,2.60
2019-02-04T08:48:05.915Z,2.70
2019-02-04T08:50:34.515Z,2.70
2019-02-04T08:53:04.575Z,2.80
2019-02-04T08:55:53.098Z,2.80
2019-02-04T08:58:24.614Z,2.90
2019-02-04T09:00:53.493Z,2.90
2019-02-04T09:03:21.971Z,3.00
2019-02-04T09:05:50.723Z,3.00
2019-02-04T09:08:19.203Z,3.10
2019-02-04T09:10:47.769Z,3.10
2019-02-04T09:13:16.316Z,3.20
2019-02-04T09:16:04.338Z,3.20
2019-02-04T09:18:44.192Z,3.30
2019-02-04T09:21:06.197Z,3.40
2019-02-04T09:23:35.054Z,3.40
2019-02-04T09:26:03.595Z,3.40
2019-02-04T09:28:32.148Z,3.50
2019-02-04T09:31:01.232Z,3.60
2019-02-04T09:33:30.127Z,3.60
2019-02-04T09:35:58.834Z,3.60
2019-02-04T09:38:27.692Z,3.70
2019-02-04T09:40:56.406Z,3.70
2019-02-04T09:43:25.138Z,3.80
2019-02-04T09:45:53.638Z,3.80
2019-02-04T09:48:22.308Z,3.80
2019-02-04T09:50:53.088Z,3.90
2019-02-04T09:53:21.877Z,4.00
2019-02-04T09:55:50.486Z,4.10
2019-02-04T09:58:19.258Z,4.10
2019-02-04T10:00:49.483Z,4.20
2019-02-04T10:03:17.919Z,4.20
2019-02-04T10:05:47.244Z,4.30
2019-02-04T10:08:15.882Z,4.30
2019-02-04T10:10:44.332Z,4.40
2019-02-04T10:13:32.183Z,4.40
2019-02-04T10:16:02.076Z,4.50
2019-02-04T10:18:30.766Z,4.50
2019-02-04T10:20:59.370Z,4.60
2019-02-04T10:23:28.055Z,4.60
2019-02-04T10:25:56.874Z,4.70
2019-02-04T10:28:25.479Z,4.80
2019-02-04T10:30:54.375Z,4.80
2019-02-04T10:33:23.250Z,4.80
2019-02-04T10:35:53.334Z,4.90
2019-02-04T10:38:21.914Z,5.00
2019-02-04T10:40:50.598Z,5.00
2019-02-04T10:43:19.203Z,5.00
2019-02-04T10:45:48.347Z,5.10
2019-02-04T10:48:17.045Z,5.10
2019-02-04T10:50:47.025Z,5.20
2019-02-04T10:53:35.170Z,5.30
2019-02-04T10:56:04.341Z,5.30
2019-02-04T10:58:33.048Z,5.40
2019-02-04T11:01:01.603Z,5.40
2019-02-04T11:03:30.212Z,5.50
2019-02-04T11:05:59.566Z,5.50
2019-02-04T11:08:28.563Z,5.50
2019-02-04T11:10:57.871Z,5.60
2019-02-04T11:13:29.599Z,5.60
2019-02-04T11:15:59.606Z,5.60
2019-02-04T11:18:28.746Z,5.60
2019-02-04T11:20:58.519Z,5.60
2019-02-04T11:23:29.251Z,5.70
2019-02-04T11:25:57.842Z,5.70
2019-02-04T11:28:26.856Z,5.80
2019-02-04T11:30:58.007Z,5.90
2019-02-04T11:33:26.773Z,6.00
2019-02-04T11:35:55.309Z,6.00
2019-02-04T11:38:26.945Z,6.00
2019-02-04T11:40:56.012Z,6.00
2019-02-04T11:43:43.910Z,6.10
2019-02-04T11:46:12.358Z,6.10
2019-02-04T11:48:40.815Z,6.20
2019-02-04T11:51:10.141Z,6.20
2019-02-04T11:53:38.918Z,6.20
2019-02-04T11:56:07.493Z,6.20
2019-02-04T11:58:36.112Z,6.30
2019-02-04T12:01:06.184Z,6.30
2019-02-04T12:03:35.055Z,6.30
2019-02-04T12:06:03.547Z,6.30
2019-02-04T12:08:31.996Z,6.30
2019-02-04T12:11:02.977Z,6.30
2019-02-04T12:13:31.407Z,6.30
2019-02-04T12:15:59.832Z,6.30
2019-02-04T12:18:28.411Z,6.30
2019-02-04T12:20:56.887Z,6.20
2019-02-04T12:23:25.504Z,6.30
2019-02-04T12:25:53.931Z,6.20
2019-02-04T12:28:22.434Z,6.20
2019-02-04T12:30:50.858Z,6.20
2019-02-04T12:33:19.356Z,6.20
2019-02-04T12:35:47.782Z,6.10
2019-02-04T12:38:16.782Z,6.10
2019-02-04T12:40:45.305Z,6.10
2019-02-04T12:43:13.814Z,6.10
2019-02-04T12:46:01.639Z,6.10
2019-02-04T12:48:37.305Z,6.10
2019-02-04T12:51:06.256Z,6.10
2019-02-04T12:53:35.047Z,6.10
2019-02-04T12:56:22.816Z,6.20
2019-02-04T12:58:55.697Z,6.20
2019-02-04T13:01:21.520Z,6.20
2019-02-04T13:03:50.000Z,6.30
2019-02-04T13:06:18.455Z,6.30
2019-02-04T13:08:46.883Z,6.40
2019-02-04T13:11:15.349Z,6.50
2019-02-04T13:13:43.784Z,6.50
2019-02-04T13:16:12.441Z,6.50
2019-02-04T13:18:40.879Z,6.50
2019-02-04T13:21:09.467Z,6.50
2019-02-04T13:23:37.923Z,6.50
2019-02-04T13:26:06.433Z,6.50
2019-02-04T13:28:35.024Z,6.50
2019-02-04T13:31:03.808Z,6.50
2019-02-04T13:33:32.248Z,6.40
2019-02-04T13:36:00.688Z,6.40
2019-02-04T13:38:29.173Z,6.40
2019-02-04T13:41:07.607Z,6.40
2019-02-04T13:43:27.884Z,6.30
2019-02-04T13:45:58.003Z,6.30
2019-02-04T13:48:26.682Z,6.20
2019-02-04T13:50:55.262Z,6.20
2019-02-04T13:53:26.785Z,6.10
2019-02-04T13:55:53.916Z,6.10
2019-02-04T13:58:22.338Z,6.10
2019-02-04T14:00:51.155Z,6.10
2019-02-04T14:03:19.590Z,6.10
2019-02-04T14:06:08.918Z,6.10
2019-02-04T14:08:37.545Z,6.10
2019-02-04T14:11:06.436Z,6.10
2019-02-04T14:13:34.847Z,6.10
2019-02-04T14:16:03.444Z,6.00
2019-02-04T14:18:32.080Z,6.00
2019-02-04T14:21:00.525Z,6.00
2019-02-04T14:23:29.040Z,5.90
2019-02-04T14:25:57.836Z,5.80
2019-02-04T14:28:31.391Z,5.70
2019-02-04T14:30:59.183Z,5.70
2019-02-04T14:33:27.812Z,5.70
2019-02-04T14:35:56.297Z,5.70
2019-02-04T14:38:24.799Z,5.70
2019-02-04T14:40:53.563Z,5.70
2019-02-04T14:43:28.244Z,5.80
2019-02-04T14:46:12.022Z,5.80
2019-02-04T14:48:59.823Z,5.90
2019-02-04T14:51:43.159Z,6.00
2019-02-04T14:54:37.988Z,6.00
2019-02-04T14:57:13.169Z,6.00
2019-02-04T14:59:45.135Z,6.10
2019-02-04T15:02:54.093Z,6.10
2019-02-04T15:05:31.324Z,6.10
2019-02-04T15:08:32.664Z,6.10
2019-02-04T15:11:12.049Z,6.10
2019-02-04T15:13:58.575Z,6.10
2019-02-04T15:16:36.189Z,6.00
2019-02-04T15:19:16.423Z,5.90
2019-02-04T15:22:08.435Z,5.90
2019-02-04T15:25:09.769Z,5.90
2019-02-04T15:27:58.105Z,5.90
2019-02-04T15:30:35.717Z,5.80
2019-02-04T15:33:23.331Z,5.70
2019-02-04T15:36:20.396Z,5.70
2019-02-04T15:39:04.535Z,5.70
2019-02-04T15:41:44.708Z,5.60
2019-02-04T15:44:28.673Z,5.60
2019-02-04T15:47:14.187Z,5.60
2019-02-04T15:50:08.157Z,5.60
2019-02-04T15:52:45.104Z,5.60
2019-02-04T15:55:13.384Z,5.60
2019-02-04T15:57:42.215Z,5.50
2019-02-04T16:00:13.608Z,5.60
2019-02-04T16:02:42.189Z,5.60
2019-02-04T16:05:11.531Z,5.60
2019-02-04T16:07:40.617Z,5.60
2019-02-04T16:10:12.617Z,5.60
2019-02-04T16:12:41.329Z,5.60
2019-02-04T16:15:12.538Z,5.60
2019-02-04T16:17:41.447Z,5.60
2019-02-04T16:20:18.567Z,5.50
2019-02-04T16:22:58.081Z,5.50
2019-02-04T16:25:17.787Z,5.50
2019-02-04T16:27:46.447Z,5.50
2019-02-04T16:30:22.191Z,5.40
2019-02-04T16:32:52.840Z,5.30
2019-02-04T16:35:21.051Z,5.30
2019-02-04T16:37:50.128Z,5.20
2019-02-04T16:40:21.051Z,5.20
2019-02-04T16:42:49.891Z,5.20
2019-02-04T16:45:23.737Z,5.10
2019-02-04T16:47:52.546Z,5.10
2019-02-04T16:50:23.471Z,5.10
2019-02-04T16:52:56.312Z,5.00
2019-02-04T16:55:25.232Z,5.10
2019-02-04T16:57:54.497Z,5.10
2019-02-04T17:00:26.201Z,5.10
2019-02-04T17:02:54.983Z,5.10
2019-02-04T17:05:26.126Z,5.10
2019-02-04T17:07:55.443Z,5.20
2019-02-04T17:10:26.013Z,5.20
2019-02-04T17:12:55.134Z,5.20
2019-02-04T17:15:25.753Z,5.40
2019-02-04T17:17:54.442Z,5.40
2019-02-04T17:20:26.065Z,5.50
2019-02-04T17:22:54.656Z,5.50
2019-02-04T17:25:23.352Z,5.50
2019-02-04T17:27:51.839Z,5.50
2019-02-04T17:30:25.307Z,5.50
2019-02-04T17:32:54.054Z,5.50
2019-02-04T17:35:22.683Z,5.50
2019-02-04T17:37:51.187Z,5.50
2019-02-04T17:40:24.007Z,5.50
2019-02-04T17:42:54.483Z,5.50
2019-02-04T17:45:23.154Z,5.50
2019-02-04T17:47:52.899Z,5.50
2019-02-04T17:50:22.377Z,5.50
2019-02-04T17:52:50.983Z,5.50
2019-02-04T17:55:21.934Z,5.50
2019-02-04T17:57:50.728Z,5.50
2019-02-04T18:00:25.974Z,5.40
2019-02-04T18:02:54.490Z,5.50
2019-02-04T18:05:23.080Z,5.40
2019-02-04T18:07:51.573Z,5.40
2019-02-04T18:10:20.653Z,5.40
2019-02-04T18:12:49.491Z,5.40
2019-02-04T18:15:20.382Z,5.40
2019-02-04T18:17:49.031Z,5.30
2019-02-04T18:20:17.627Z,5.40
2019-02-04T18:22:46.258Z,5.40
2019-02-04T18:25:16.944Z,5.40
2019-02-04T18:27:45.575Z,5.40
2019-02-04T18:30:22.362Z,5.40
2019-02-04T18:32:50.950Z,5.40
2019-02-04T18:35:19.521Z,5.40
2019-02-04T18:37:48.031Z,5.30
2019-02-04T18:40:21.050Z,5.30
2019-02-04T18:42:49.746Z,5.30
2019-02-04T18:45:34.459Z,5.20
2019-02-04T18:48:02.939Z,5.20
2019-02-04T18:50:31.978Z,5.20
2019-02-04T18:53:00.438Z,5.10
2019-02-04T18:55:33.595Z,5.10
2019-02-04T18:58:02.098Z,5.10
2019-02-04T19:00:34.961Z,5.00
2019-02-04T19:03:16.608Z,4.90
2019-02-04T19:05:35.576Z,4.90
2019-02-04T19:08:04.918Z,4.80
2019-02-04T19:10:33.362Z,4.80
2019-02-04T19:13:01.794Z,4.80
2019-02-04T19:15:30.579Z,4.80
2019-02-04T19:18:30.404Z,4.80
2019-02-04T19:20:58.817Z,4.80
2019-02-04T19:23:27.260Z,4.70
2019-02-04T19:25:59.251Z,4.60
2019-02-04T19:28:27.735Z,4.70
2019-02-04T19:30:59.251Z,4.60
2019-02-04T19:33:27.672Z,4.60
2019-02-04T19:35:56.196Z,4.60
2019-02-04T19:38:24.620Z,4.70
2019-02-04T19:40:53.066Z,4.60
2019-02-04T19:43:21.555Z,4.60
2019-02-04T19:45:51.261Z,4.70
2019-02-04T19:48:19.702Z,4.60
2019-02-04T19:50:48.133Z,4.70
2019-02-04T19:53:16.879Z,4.60
2019-02-04T19:55:45.420Z,4.60
2019-02-04T19:58:14.139Z,4.60
2019-02-04T20:00:42.615Z,4.60
2019-02-04T20:03:11.425Z,4.60
2019-02-04T20:05:40.136Z,4.60
2019-02-04T20:08:08.736Z,4.60
2019-02-04T20:10:37.341Z,4.60
2019-02-04T20:13:06.594Z,4.60
2019-02-04T20:15:36.457Z,4.50
2019-02-04T20:18:05.154Z,4.50
2019-02-04T20:20:35.110Z,4.50
2019-02-04T20:23:03.860Z,4.50
2019-02-04T20:25:51.940Z,4.40
2019-02-04T20:28:20.879Z,4.40
2019-02-04T20:30:49.663Z,4.40
2019-02-04T20:33:18.152Z,4.40
2019-02-04T20:35:46.865Z,4.40
2019-02-04T20:38:15.604Z,4.30
2019-02-04T20:40:44.622Z,4.30
2019-02-04T20:43:13.417Z,4.30
2019-02-04T20:45:42.179Z,4.30
2019-02-04T20:48:13.202Z,4.30
2019-02-04T20:50:47.454Z,4.30
2019-02-04T20:53:16.238Z,4.20
2019-02-04T20:55:44.963Z,4.20
2019-02-04T20:58:13.961Z,4.30
2019-02-04T21:00:42.578Z,4.20
2019-02-04T21:03:11.158Z,4.20
2019-02-04T21:05:39.854Z,4.30
2019-02-04T21:08:08.366Z,4.30
2019-02-04T21:10:37.622Z,4.20
2019-02-04T21:13:06.494Z,4.20
2019-02-04T21:15:35.098Z,4.20
2019-02-04T21:18:07.117Z,4.30
2019-02-04T21:20:35.789Z,4.30
2019-02-04T21:23:04.607Z,4.30
2019-02-04T21:25:33.627Z,4.30
2019-02-04T21:28:02.095Z,4.30
2019-02-04T21:30:33.262Z,4.30
2019-02-04T21:33:01.716Z,4.30
2019-02-04T21:35:30.496Z,4.30
2019-02-04T21:37:58.913Z,4.30
2019-02-04T21:40:47.068Z,4.30
2019-02-04T21:43:15.535Z,4.40
2019-02-04T21:45:44.031Z,4.30
2019-02-04T21:48:12.443Z,4.30
2019-02-04T21:50:40.925Z,4.30
2019-02-04T21:53:09.820Z,4.30
2019-02-04T21:55:38.432Z,4.30
2019-02-04T21:58:07.017Z,4.30
2019-02-04T22:00:38.650Z,4.40
2019-02-04T22:03:07.178Z,4.40
2019-02-04T22:05:37.851Z,4.30
2019-02-04T22:08:06.937Z,4.40
2019-02-04T22:10:54.772Z,4.40
2019-02-04T22:13:23.209Z,4.40
2019-02-04T22:15:52.187Z,4.40
2019-02-04T22:18:20.627Z,4.40
2019-02-04T22:20:49.432Z,4.40
2019-02-04T22:23:17.847Z,4.40
2019-02-04T22:25:46.657Z,4.40
2019-02-04T22:28:15.161Z,4.40
2019-02-04T22:30:44.091Z,4.40
2019-02-04T22:33:31.883Z,4.40
2019-02-04T22:36:00.408Z,4.40
2019-02-04T22:38:28.823Z,4.40
2019-02-04T22:41:16.611Z,4.40
2019-02-04T22:43:45.419Z,4.40
2019-02-04T22:46:13.848Z,4.40
2019-02-04T22:49:01.713Z,4.40
2019-02-04T22:51:30.225Z,4.40
2019-02-04T22:53:58.717Z,4.40
2019-02-04T22:56:27.341Z,4.40
2019-02-04T22:58:55.760Z,4.40
2019-02-04T23:01:45.103Z,4.40
2019-02-04T23:04:13.595Z,4.40
2019-02-04T23:06:42.520Z,4.40
2019-02-04T23:09:10.925Z,4.40
2019-02-04T23:11:39.453Z,4.40
2019-02-04T23:14:08.039Z,4.40
2019-02-04T23:16:36.494Z,4.40
2019-02-04T23:19:05.648Z,4.40
2019-02-04T23:21:34.071Z,4.40
2019-02-04T23:24:02.616Z,4.40
2019-02-04T23:26:31.059Z,4.40
2019-02-04T23:28:59.473Z,4.40
2019-02-04T23:31:27.891Z,4.40
2019-02-04T23:36:51.115Z,4.40
2019-02-04T23:39:20.452Z,4.40
2019-02-04T23:41:48.892Z,4.40
2019-02-04T23:44:17.327Z,4.50
2019-02-04T23:46:45.739Z,4.50
2019-02-04T23:49:14.188Z,4.50
2019-02-04T23:51:42.643Z,4.50
2019-02-04T23:54:11.205Z,4.50
2019-02-04T23:56:39.619Z,4.50
2019-02-04T23:59:27.420Z,4.50
